sensor_id;sensor_type;location;lat;lon;timestamp;pressure;altitude;pressure_sealevel;temperature;humidity
15998;BME280;8103;51.340;12.326;2023-02-16T00:01:25;101161.00;;;4.92;75.12
15998;BME280;8103;51.340;12.326;2023-02-16T00:03:53;101157.94;;;4.88;75.43
15998;BME280;8103;51.340;12.326;2023-02-16T00:06:23;101153.44;;;4.89;74.96
15998;BME280;8103;51.340;12.326;2023-02-16T00:08:53;101151.97;;;4.86;75.47
15998;BME280;8103;51.340;12.326;2023-02-16T00:11:32;101159.94;;;4.86;75.06
15998;BME280;8103;51.340;12.326;2023-02-16T00:14:20;101156.22;;;4.81;75.83
15998;BME280;8103;51.340;12.326;2023-02-16T00:16:53;101168.94;;;4.85;75.43
15998;BME280;8103;51.340;12.326;2023-02-16T00:19:27;101161.97;;;4.84;75.29
15998;BME280;8103;51.340;12.326;2023-02-16T00:21:57;101159.69;;;4.81;75.16
15998;BME280;8103;51.340;12.326;2023-02-16T00:24:26;101152.47;;;4.75;75.53
15998;BME280;8103;51.340;12.326;2023-02-16T00:26:55;101157.19;;;4.73;75.28
15998;BME280;8103;51.340;12.326;2023-02-16T00:29:32;101151.22;;;4.71;75.49
15998;BME280;8103;51.340;12.326;2023-02-16T00:32:03;101153.66;;;4.66;75.16
15998;BME280;8103;51.340;12.326;2023-02-16T00:37:05;101155.66;;;4.64;75.11
15998;BME280;8103;51.340;12.326;2023-02-16T00:43:31;101154.78;;;4.57;76.02
15998;BME280;8103;51.340;12.326;2023-02-16T00:45:58;101160.91;;;4.58;76.05
15998;BME280;8103;51.340;12.326;2023-02-16T00:48:25;101158.84;;;4.53;76.12
15998;BME280;8103;51.340;12.326;2023-02-16T00:50:52;101160.84;;;4.51;76.05
15998;BME280;8103;51.340;12.326;2023-02-16T00:53:19;101147.75;;;4.50;75.60
15998;BME280;8103;51.340;12.326;2023-02-16T00:55:46;101151.63;;;4.47;75.29
15998;BME280;8103;51.340;12.326;2023-02-16T00:58:26;101157.31;;;4.44;75.68
15998;BME280;8103;51.340;12.326;2023-02-16T01:01:07;101154.00;;;4.42;75.71
15998;BME280;8103;51.340;12.326;2023-02-16T01:03:36;101163.59;;;4.43;75.74
15998;BME280;8103;51.340;12.326;2023-02-16T01:06:02;101155.84;;;4.41;75.83
15998;BME280;8103;51.340;12.326;2023-02-16T01:08:48;101160.72;;;4.38;75.79
15998;BME280;8103;51.340;12.326;2023-02-16T01:11:35;101159.03;;;4.37;76.40
15998;BME280;8103;51.340;12.326;2023-02-16T01:14:02;101159.22;;;4.35;76.52
15998;BME280;8103;51.340;12.326;2023-02-16T01:16:39;101162.66;;;4.29;75.74
15998;BME280;8103;51.340;12.326;2023-02-16T01:19:09;101162.22;;;4.26;76.59
15998;BME280;8103;51.340;12.326;2023-02-16T01:21:37;101162.56;;;4.23;76.83
15998;BME280;8103;51.340;12.326;2023-02-16T01:24:04;101162.56;;;4.23;77.46
15998;BME280;8103;51.340;12.326;2023-02-16T01:26:38;101156.00;;;4.19;76.59
15998;BME280;8103;51.340;12.326;2023-02-16T01:29:13;101155.13;;;4.12;77.09
15998;BME280;8103;51.340;12.326;2023-02-16T01:31:42;101153.81;;;4.08;77.57
15998;BME280;8103;51.340;12.326;2023-02-16T01:34:10;101155.03;;;4.05;77.74
15998;BME280;8103;51.340;12.326;2023-02-16T01:36:42;101159.50;;;4.05;77.69
15998;BME280;8103;51.340;12.326;2023-02-16T01:39:16;101161.16;;;4.06;78.18
15998;BME280;8103;51.340;12.326;2023-02-16T01:42:18;101155.22;;;4.04;77.72
15998;BME280;8103;51.340;12.326;2023-02-16T01:44:53;101149.72;;;4.05;78.48
15998;BME280;8103;51.340;12.326;2023-02-16T01:52:45;101126.88;;;4.04;78.91
15998;BME280;8103;51.340;12.326;2023-02-16T01:55:31;101131.97;;;4.06;79.40
15998;BME280;8103;51.340;12.326;2023-02-16T01:58:09;101129.34;;;4.06;79.21
15998;BME280;8103;51.340;12.326;2023-02-16T02:03:23;101140.19;;;4.11;79.46
15998;BME280;8103;51.340;12.326;2023-02-16T02:06:15;101150.25;;;4.15;79.36
15998;BME280;8103;51.340;12.326;2023-02-16T02:09:14;101145.41;;;4.19;79.16
15998;BME280;8103;51.340;12.326;2023-02-16T02:11:58;101141.06;;;4.18;78.26
15998;BME280;8103;51.340;12.326;2023-02-16T02:14:38;101140.88;;;4.19;78.78
15998;BME280;8103;51.340;12.326;2023-02-16T02:17:15;101139.72;;;4.22;78.20
15998;BME280;8103;51.340;12.326;2023-02-16T02:20:15;101130.72;;;4.23;78.26
15998;BME280;8103;51.340;12.326;2023-02-16T02:23:17;101134.03;;;4.25;78.17
15998;BME280;8103;51.340;12.326;2023-02-16T02:29:49;101118.50;;;4.22;77.40
15998;BME280;8103;51.340;12.326;2023-02-16T02:32:34;101125.16;;;4.18;78.11
15998;BME280;8103;51.340;12.326;2023-02-16T02:44:01;101119.47;;;4.00;77.90
15998;BME280;8103;51.340;12.326;2023-02-16T02:46:33;101121.03;;;3.94;78.67
15998;BME280;8103;51.340;12.326;2023-02-16T02:49:01;101129.19;;;3.93;79.16
15998;BME280;8103;51.340;12.326;2023-02-16T02:51:28;101127.88;;;3.89;78.77
15998;BME280;8103;51.340;12.326;2023-02-16T02:54:18;101120.47;;;3.84;78.61
15998;BME280;8103;51.340;12.326;2023-02-16T02:57:29;101127.00;;;3.82;79.34
15998;BME280;8103;51.340;12.326;2023-02-16T03:00:31;101126.16;;;3.81;79.25
15998;BME280;8103;51.340;12.326;2023-02-16T03:03:31;101128.00;;;3.81;79.93
15998;BME280;8103;51.340;12.326;2023-02-16T03:06:05;101124.88;;;3.77;78.95
15998;BME280;8103;51.340;12.326;2023-02-16T03:08:39;101132.28;;;3.82;78.75
15998;BME280;8103;51.340;12.326;2023-02-16T03:11:24;101135.97;;;3.81;78.76
15998;BME280;8103;51.340;12.326;2023-02-16T03:17:06;101140.25;;;3.82;78.79
15998;BME280;8103;51.340;12.326;2023-02-16T03:19:52;101127.81;;;3.82;78.94
15998;BME280;8103;51.340;12.326;2023-02-16T03:22:41;101132.28;;;3.82;78.41
15998;BME280;8103;51.340;12.326;2023-02-16T03:25:33;101120.06;;;3.81;78.68
15998;BME280;8103;51.340;12.326;2023-02-16T03:28:24;101123.44;;;3.75;78.83
15998;BME280;8103;51.340;12.326;2023-02-16T03:31:17;101121.81;;;3.74;78.56
15998;BME280;8103;51.340;12.326;2023-02-16T03:33:47;101119.16;;;3.74;79.18
15998;BME280;8103;51.340;12.326;2023-02-16T03:36:26;101126.47;;;3.72;79.05
15998;BME280;8103;51.340;12.326;2023-02-16T03:38:55;101130.13;;;3.71;78.36
15998;BME280;8103;51.340;12.326;2023-02-16T03:41:24;101129.28;;;3.70;78.95
15998;BME280;8103;51.340;12.326;2023-02-16T03:43:51;101122.72;;;3.66;79.57
15998;BME280;8103;51.340;12.326;2023-02-16T03:46:19;101121.88;;;3.66;79.28
15998;BME280;8103;51.340;12.326;2023-02-16T03:48:46;101134.97;;;3.67;79.41
15998;BME280;8103;51.340;12.326;2023-02-16T03:51:13;101127.19;;;3.66;79.42
15998;BME280;8103;51.340;12.326;2023-02-16T03:53:40;101126.53;;;3.64;79.19
15998;BME280;8103;51.340;12.326;2023-02-16T03:56:07;101132.69;;;3.64;79.84
15998;BME280;8103;51.340;12.326;2023-02-16T03:58:34;101131.47;;;3.67;78.80
15998;BME280;8103;51.340;12.326;2023-02-16T04:01:01;101128.81;;;3.67;79.08
15998;BME280;8103;51.340;12.326;2023-02-16T04:03:28;101132.84;;;3.63;79.48
15998;BME280;8103;51.340;12.326;2023-02-16T04:05:55;101131.84;;;3.64;80.04
15998;BME280;8103;51.340;12.326;2023-02-16T04:08:22;101129.19;;;3.64;79.49
15998;BME280;8103;51.340;12.326;2023-02-16T04:10:49;101138.16;;;3.63;80.04
15998;BME280;8103;51.340;12.326;2023-02-16T04:13:15;101135.69;;;3.61;79.66
15998;BME280;8103;51.340;12.326;2023-02-16T04:15:42;101136.91;;;3.59;79.73
15998;BME280;8103;51.340;12.326;2023-02-16T04:18:09;101133.22;;;3.60;80.58
15998;BME280;8103;51.340;12.326;2023-02-16T04:20:36;101141.38;;;3.58;80.05
15998;BME280;8103;51.340;12.326;2023-02-16T04:23:03;101142.56;;;3.56;80.63
15998;BME280;8103;51.340;12.326;2023-02-16T04:25:30;101142.09;;;3.52;80.48
15998;BME280;8103;51.340;12.326;2023-02-16T04:27:57;101135.41;;;3.56;81.02
15998;BME280;8103;51.340;12.326;2023-02-16T04:30:30;101138.47;;;3.53;80.61
15998;BME280;8103;51.340;12.326;2023-02-16T04:32:57;101124.09;;;3.48;81.28
15998;BME280;8103;51.340;12.326;2023-02-16T04:35:25;101130.03;;;3.50;81.29
15998;BME280;8103;51.340;12.326;2023-02-16T04:37:51;101134.97;;;3.53;81.19
15998;BME280;8103;51.340;12.326;2023-02-16T04:40:18;101136.00;;;3.52;81.00
15998;BME280;8103;51.340;12.326;2023-02-16T04:42:45;101141.28;;;3.52;81.54
15998;BME280;8103;51.340;12.326;2023-02-16T04:45:12;101125.56;;;3.50;81.09
15998;BME280;8103;51.340;12.326;2023-02-16T04:47:40;101123.72;;;3.51;81.17
15998;BME280;8103;51.340;12.326;2023-02-16T04:50:08;101133.88;;;3.47;81.38
15998;BME280;8103;51.340;12.326;2023-02-16T04:52:36;101122.28;;;3.48;81.22
15998;BME280;8103;51.340;12.326;2023-02-16T04:55:04;101124.91;;;3.48;81.65
15998;BME280;8103;51.340;12.326;2023-02-16T04:57:31;101124.91;;;3.48;81.18
15998;BME280;8103;51.340;12.326;2023-02-16T04:59:58;101125.38;;;3.52;80.72
15998;BME280;8103;51.340;12.326;2023-02-16T05:02:25;101128.22;;;3.50;81.08
15998;BME280;8103;51.340;12.326;2023-02-16T05:04:51;101127.38;;;3.50;81.38
15998;BME280;8103;51.340;12.326;2023-02-16T05:07:18;101130.03;;;3.50;80.87
15998;BME280;8103;51.340;12.326;2023-02-16T05:09:45;101140.81;;;3.48;81.36
15998;BME280;8103;51.340;12.326;2023-02-16T05:12:12;101145.28;;;3.48;82.09
15998;BME280;8103;51.340;12.326;2023-02-16T05:14:57;101151.78;;;3.45;81.84
15998;BME280;8103;51.340;12.326;2023-02-16T05:17:26;101144.00;;;3.44;81.50
15998;BME280;8103;51.340;12.326;2023-02-16T05:19:59;101139.72;;;3.43;81.89
15998;BME280;8103;51.340;12.326;2023-02-16T05:22:26;101141.38;;;3.44;81.73
15998;BME280;8103;51.340;12.326;2023-02-16T05:25:00;101144.00;;;3.44;81.69
15998;BME280;8103;51.340;12.326;2023-02-16T05:27:29;101144.00;;;3.44;81.64
15998;BME280;8103;51.340;12.326;2023-02-16T05:29:57;101140.72;;;3.42;82.20
15998;BME280;8103;51.340;12.326;2023-02-16T05:32:24;101137.69;;;3.45;82.15
15998;BME280;8103;51.340;12.326;2023-02-16T05:34:51;101115.88;;;3.43;82.45
15998;BME280;8103;51.340;12.326;2023-02-16T05:37:18;101111.56;;;3.42;81.84
15998;BME280;8103;51.340;12.326;2023-02-16T05:39:45;101102.81;;;3.41;81.96
15998;BME280;8103;51.340;12.326;2023-02-16T05:42:12;101097.69;;;3.40;81.88
15998;BME280;8103;51.340;12.326;2023-02-16T05:44:39;101099.63;;;3.46;82.88
15998;BME280;8103;51.340;12.326;2023-02-16T05:47:06;101101.25;;;3.47;82.70
15998;BME280;8103;51.340;12.326;2023-02-16T05:49:33;101110.47;;;3.51;82.80
15998;BME280;8103;51.340;12.326;2023-02-16T05:52:00;101112.31;;;3.50;81.91
15998;BME280;8103;51.340;12.326;2023-02-16T05:54:27;101122.09;;;3.50;82.92
15998;BME280;8103;51.340;12.326;2023-02-16T05:56:54;101114.13;;;3.50;82.71
15998;BME280;8103;51.340;12.326;2023-02-16T05:59:21;101110.47;;;3.51;82.92
15998;BME280;8103;51.340;12.326;2023-02-16T06:01:48;101116.97;;;3.48;82.23
15998;BME280;8103;51.340;12.326;2023-02-16T06:04:19;101120.44;;;3.49;83.29
15998;BME280;8103;51.340;12.326;2023-02-16T06:06:46;101118.78;;;3.48;82.50
15998;BME280;8103;51.340;12.326;2023-02-16T06:09:13;101119.81;;;3.47;82.40
15998;BME280;8103;51.340;12.326;2023-02-16T06:11:41;101126.38;;;3.51;82.97
15998;BME280;8103;51.340;12.326;2023-02-16T06:14:17;101119.25;;;3.51;83.01
15998;BME280;8103;51.340;12.326;2023-02-16T06:16:48;101125.19;;;3.53;82.70
15998;BME280;8103;51.340;12.326;2023-02-16T06:19:16;101123.34;;;3.54;83.67
15998;BME280;8103;51.340;12.326;2023-02-16T06:21:44;101124.00;;;3.56;82.42
15998;BME280;8103;51.340;12.326;2023-02-16T06:24:12;101126.47;;;3.57;82.66
15998;BME280;8103;51.340;12.326;2023-02-16T06:26:40;101131.97;;;3.56;83.31
15998;BME280;8103;51.340;12.326;2023-02-16T06:29:08;101131.13;;;3.55;83.00
15998;BME280;8103;51.340;12.326;2023-02-16T06:31:35;101127.66;;;3.55;83.35
15998;BME280;8103;51.340;12.326;2023-02-16T06:34:03;101135.63;;;3.55;83.40
15998;BME280;8103;51.340;12.326;2023-02-16T06:36:31;101133.97;;;3.54;83.21
15998;BME280;8103;51.340;12.326;2023-02-16T06:38:58;101127.66;;;3.55;83.37
15998;BME280;8103;51.340;12.326;2023-02-16T06:41:25;101123.81;;;3.57;83.23
15998;BME280;8103;51.340;12.326;2023-02-16T06:44:02;101118.97;;;3.61;82.65
15998;BME280;8103;51.340;12.326;2023-02-16T06:46:30;101115.13;;;3.63;82.85
15998;BME280;8103;51.340;12.326;2023-02-16T06:48:57;101110.28;;;3.67;82.29
15998;BME280;8103;51.340;12.326;2023-02-16T06:51:24;101117.84;;;3.70;82.44
15998;BME280;8103;51.340;12.326;2023-02-16T06:53:50;101115.66;;;3.73;82.23
15998;BME280;8103;51.340;12.326;2023-02-16T06:56:17;101117.31;;;3.74;81.81
15998;BME280;8103;51.340;12.326;2023-02-16T06:58:44;101116.75;;;3.79;82.03
15998;BME280;8103;51.340;12.326;2023-02-16T07:01:12;101113.34;;;3.85;82.55
15998;BME280;8103;51.340;12.326;2023-02-16T07:03:39;101113.63;;;3.90;81.99
15998;BME280;8103;51.340;12.326;2023-02-16T07:06:07;101111.59;;;3.92;82.19
15998;BME280;8103;51.340;12.326;2023-02-16T07:08:34;101114.91;;;3.94;81.36
15998;BME280;8103;51.340;12.326;2023-02-16T07:11:02;101122.03;;;3.93;81.45
15998;BME280;8103;51.340;12.326;2023-02-16T07:13:30;101120.22;;;3.94;81.20
15998;BME280;8103;51.340;12.326;2023-02-16T07:15:56;101114.63;;;3.89;82.02
15998;BME280;8103;51.340;12.326;2023-02-16T07:18:25;101107.03;;;3.86;81.55
15998;BME280;8103;51.340;12.326;2023-02-16T07:20:52;101121.59;;;3.90;81.80
15998;BME280;8103;51.340;12.326;2023-02-16T07:23:18;101128.16;;;3.94;82.02
15998;BME280;8103;51.340;12.326;2023-02-16T07:25:46;101126.34;;;3.94;82.36
15998;BME280;8103;51.340;12.326;2023-02-16T07:28:14;101119.09;;;4.03;81.86
15998;BME280;8103;51.340;12.326;2023-02-16T07:30:41;101130.13;;;4.06;82.07
15998;BME280;8103;51.340;12.326;2023-02-16T07:33:09;101124.09;;;4.12;80.94
15998;BME280;8103;51.340;12.326;2023-02-16T07:35:37;101122.25;;;4.13;81.00
15998;BME280;8103;51.340;12.326;2023-02-16T07:38:04;101117.19;;;4.18;80.60
15998;BME280;8103;51.340;12.326;2023-02-16T07:40:31;101116.22;;;4.19;81.16
15998;BME280;8103;51.340;12.326;2023-02-16T07:43:01;101121.31;;;4.20;81.12
15998;BME280;8103;51.340;12.326;2023-02-16T07:45:29;101116.44;;;4.24;81.04
15998;BME280;8103;51.340;12.326;2023-02-16T07:48:00;101116.06;;;4.27;81.08
15998;BME280;8103;51.340;12.326;2023-02-16T07:50:28;101113.22;;;4.28;80.59
15998;BME280;8103;51.340;12.326;2023-02-16T07:52:54;101121.84;;;4.30;80.66
15998;BME280;8103;51.340;12.326;2023-02-16T07:55:21;101111.69;;;4.34;80.43
15998;BME280;8103;51.340;12.326;2023-02-16T07:57:48;101113.72;;;4.38;80.20
15998;BME280;8103;51.340;12.326;2023-02-16T08:00:20;101112.59;;;4.47;80.47
15998;BME280;8103;51.340;12.326;2023-02-16T08:02:48;101112.72;;;4.61;80.00
15998;BME280;8103;51.340;12.326;2023-02-16T08:05:16;101114.06;;;4.71;78.93
15998;BME280;8103;51.340;12.326;2023-02-16T08:07:43;101112.91;;;4.80;78.88
15998;BME280;8103;51.340;12.326;2023-02-16T08:10:12;101116.44;;;4.87;79.21
15998;BME280;8103;51.340;12.326;2023-02-16T08:12:39;101118.69;;;4.90;78.24
15998;BME280;8103;51.340;12.326;2023-02-16T08:15:06;101113.00;;;4.93;77.31
15998;BME280;8103;51.340;12.326;2023-02-16T08:17:34;101107.31;;;4.96;78.32
15998;BME280;8103;51.340;12.326;2023-02-16T08:20:04;101114.97;;;5.06;77.58
15998;BME280;8103;51.340;12.326;2023-02-16T08:22:31;101111.72;;;5.10;76.94
15998;BME280;8103;51.340;12.326;2023-02-16T08:24:58;101116.47;;;5.21;78.14
15998;BME280;8103;51.340;12.326;2023-02-16T08:27:25;101118.69;;;5.45;77.50
15998;BME280;8103;51.340;12.326;2023-02-16T08:29:52;101120.19;;;6.01;75.67
15998;BME280;8103;51.340;12.326;2023-02-16T08:32:19;101125.25;;;6.43;74.60
15998;BME280;8103;51.340;12.326;2023-02-16T08:34:46;101124.84;;;6.53;73.15
15998;BME280;8103;51.340;12.326;2023-02-16T08:37:13;101118.09;;;6.64;71.91
15998;BME280;8103;51.340;12.326;2023-02-16T08:39:40;101116.25;;;6.51;71.26
15998;BME280;8103;51.340;12.326;2023-02-16T08:42:10;101119.88;;;6.30;72.25
15998;BME280;8103;51.340;12.326;2023-02-16T08:44:38;101126.00;;;6.18;72.35
15998;BME280;8103;51.340;12.326;2023-02-16T08:47:05;101130.28;;;6.12;72.98
15998;BME280;8103;51.340;12.326;2023-02-16T08:49:32;101124.53;;;6.09;73.22
15998;BME280;8103;51.340;12.326;2023-02-16T08:51:59;101123.72;;;6.08;73.45
15998;BME280;8103;51.340;12.326;2023-02-16T08:54:29;101129.03;;;6.15;73.34
15998;BME280;8103;51.340;12.326;2023-02-16T08:56:57;101123.13;;;6.19;73.18
15998;BME280;8103;51.340;12.326;2023-02-16T08:59:25;101132.19;;;6.31;73.34
15998;BME280;8103;51.340;12.326;2023-02-16T09:01:56;101131.38;;;6.44;73.03
15998;BME280;8103;51.340;12.326;2023-02-16T09:04:24;101121.16;;;6.61;72.95
15998;BME280;8103;51.340;12.326;2023-02-16T09:06:51;101126.50;;;6.87;72.06
15998;BME280;8103;51.340;12.326;2023-02-16T09:09:19;101130.19;;;7.12;71.37
15998;BME280;8103;51.340;12.326;2023-02-16T09:11:46;101122.97;;;7.45;69.96
15998;BME280;8103;51.340;12.326;2023-02-16T09:14:14;101113.19;;;7.83;69.06
15998;BME280;8103;51.340;12.326;2023-02-16T09:16:43;101109.84;;;9.18;66.30
15998;BME280;8103;51.340;12.326;2023-02-16T09:19:17;101113.19;;;11.16;59.03
15998;BME280;8103;51.340;12.326;2023-02-16T09:21:46;101109.19;;;13.05;52.68
15998;BME280;8103;51.340;12.326;2023-02-16T09:28:20;101110.06;;;15.56;43.43
15998;BME280;8103;51.340;12.326;2023-02-16T09:30:47;101116.09;;;15.73;41.96
15998;BME280;8103;51.340;12.326;2023-02-16T09:33:14;101121.59;;;15.46;42.55
15998;BME280;8103;51.340;12.326;2023-02-16T09:39:47;101114.09;;;17.85;38.86
15998;BME280;8103;51.340;12.326;2023-02-16T09:46:19;101107.47;;;18.98;35.45
15998;BME280;8103;51.340;12.326;2023-02-16T09:48:49;101105.22;;;19.06;34.96
15998;BME280;8103;51.340;12.326;2023-02-16T09:51:24;101109.06;;;18.99;35.18
15998;BME280;8103;51.340;12.326;2023-02-16T09:54:46;101095.59;;;19.47;34.02
15998;BME280;8103;51.340;12.326;2023-02-16T09:57:30;101091.31;;;20.30;33.50
15998;BME280;8103;51.340;12.326;2023-02-16T10:03:08;101094.41;;;20.42;32.23
15998;BME280;8103;51.340;12.326;2023-02-16T10:08:57;101094.00;;;21.77;30.54
15998;BME280;8103;51.340;12.326;2023-02-16T10:11:40;101081.34;;;21.67;30.55
15998;BME280;8103;51.340;12.326;2023-02-16T10:14:40;101089.91;;;22.15;29.92
15998;BME280;8103;51.340;12.326;2023-02-16T10:17:32;101088.16;;;21.24;30.74
15998;BME280;8103;51.340;12.326;2023-02-16T10:20:17;101097.84;;;21.76;30.45
15998;BME280;8103;51.340;12.326;2023-02-16T10:28:49;101093.31;;;22.69;28.98
15998;BME280;8103;51.340;12.326;2023-02-16T10:34:47;101087.53;;;21.86;30.33
15998;BME280;8103;51.340;12.326;2023-02-16T10:43:03;101087.84;;;20.24;32.74
15998;BME280;8103;51.340;12.326;2023-02-16T10:49:37;101086.78;;;19.31;33.77
15998;BME280;8103;51.340;12.326;2023-02-16T10:52:07;101082.09;;;18.74;34.94
15998;BME280;8103;51.340;12.326;2023-02-16T10:54:35;101077.56;;;19.27;34.53
15998;BME280;8103;51.340;12.326;2023-02-16T10:57:05;101069.91;;;20.74;32.51
15998;BME280;8103;51.340;12.326;2023-02-16T10:59:40;101073.94;;;21.54;30.53
15998;BME280;8103;51.340;12.326;2023-02-16T11:02:34;101073.44;;;22.42;29.81
15998;BME280;8103;51.340;12.326;2023-02-16T11:05:34;101071.78;;;22.98;28.72
15998;BME280;8103;51.340;12.326;2023-02-16T11:08:02;101083.88;;;23.59;28.68
15998;BME280;8103;51.340;12.326;2023-02-16T11:10:46;101078.53;;;23.54;28.10
15998;BME280;8103;51.340;12.326;2023-02-16T11:13:35;101071.47;;;22.20;29.68
15998;BME280;8103;51.340;12.326;2023-02-16T11:16:11;101073.56;;;21.74;30.28
15998;BME280;8103;51.340;12.326;2023-02-16T11:18:48;101068.50;;;21.81;30.65
15998;BME280;8103;51.340;12.326;2023-02-16T11:21:43;101061.63;;;21.84;29.97
15998;BME280;8103;51.340;12.326;2023-02-16T11:24:31;101061.63;;;21.84;30.05
15998;BME280;8103;51.340;12.326;2023-02-16T11:27:17;101064.38;;;22.19;30.35
15998;BME280;8103;51.340;12.326;2023-02-16T11:29:44;101045.94;;;22.82;28.82
15998;BME280;8103;51.340;12.326;2023-02-16T11:32:14;101048.72;;;23.22;28.83
15998;BME280;8103;51.340;12.326;2023-02-16T11:34:49;101040.59;;;23.78;27.81
15998;BME280;8103;51.340;12.326;2023-02-16T11:37:33;101041.88;;;23.72;27.82
15998;BME280;8103;51.340;12.326;2023-02-16T11:40:06;101046.81;;;24.26;27.16
15998;BME280;8103;51.340;12.326;2023-02-16T11:42:46;101030.75;;;25.13;25.96
15998;BME280;8103;51.340;12.326;2023-02-16T11:45:34;101033.47;;;26.70;24.33
15998;BME280;8103;51.340;12.326;2023-02-16T11:48:10;101031.75;;;25.00;25.86
15998;BME280;8103;51.340;12.326;2023-02-16T11:51:01;101044.81;;;22.61;28.23
15998;BME280;8103;51.340;12.326;2023-02-16T11:53:40;101046.34;;;19.48;33.24
15998;BME280;8103;51.340;12.326;2023-02-16T11:56:30;101033.41;;;17.52;36.91
15998;BME280;8103;51.340;12.326;2023-02-16T11:59:18;101034.53;;;16.21;39.85
15998;BME280;8103;51.340;12.326;2023-02-16T12:02:07;101036.50;;;15.54;41.75
15998;BME280;8103;51.340;12.326;2023-02-16T12:07:39;101032.25;;;14.79;44.54
15998;BME280;8103;51.340;12.326;2023-02-16T12:10:30;101025.09;;;14.63;45.40
15998;BME280;8103;51.340;12.326;2023-02-16T12:25:18;101016.84;;;14.80;45.96
15998;BME280;8103;51.340;12.326;2023-02-16T12:28:26;101012.63;;;16.32;42.57
15998;BME280;8103;51.340;12.326;2023-02-16T12:34:32;100987.19;;;22.49;31.11
15998;BME280;8103;51.340;12.326;2023-02-16T12:37:40;100978.59;;;25.13;27.71
15998;BME280;8103;51.340;12.326;2023-02-16T12:47:04;100980.00;;;27.16;24.10
15998;BME280;8103;51.340;12.326;2023-02-16T12:49:59;100973.88;;;26.86;24.14
15998;BME280;8103;51.340;12.326;2023-02-16T12:56:02;100973.16;;;27.46;23.63
15998;BME280;8103;51.340;12.326;2023-02-16T12:58:39;100959.84;;;28.00;22.51
15998;BME280;8103;51.340;12.326;2023-02-16T13:01:16;100964.28;;;27.53;23.09
15998;BME280;8103;51.340;12.326;2023-02-16T13:03:58;100966.59;;;27.39;23.11
15998;BME280;8103;51.340;12.326;2023-02-16T13:06:37;100956.00;;;27.05;23.04
15998;BME280;8103;51.340;12.326;2023-02-16T13:12:38;100958.47;;;28.33;21.36
15998;BME280;8103;51.340;12.326;2023-02-16T13:15:14;100953.75;;;28.34;21.24
15998;BME280;8103;51.340;12.326;2023-02-16T13:17:52;100957.94;;;27.76;22.17
15998;BME280;8103;51.340;12.326;2023-02-16T13:20:23;100954.50;;;27.67;22.33
15998;BME280;8103;51.340;12.326;2023-02-16T13:23:30;100957.00;;;26.43;23.64
15998;BME280;8103;51.340;12.326;2023-02-16T13:26:24;100955.03;;;26.76;23.54
15998;BME280;8103;51.340;12.326;2023-02-16T13:29:38;100951.31;;;27.05;23.44
15998;BME280;8103;51.340;12.326;2023-02-16T13:32:35;100950.72;;;27.12;22.88
15998;BME280;8103;51.340;12.326;2023-02-16T13:44:20;100954.69;;;27.35;23.16
15998;BME280;8103;51.340;12.326;2023-02-16T13:46:51;100956.72;;;27.50;22.70
15998;BME280;8103;51.340;12.326;2023-02-16T13:49:36;100967.09;;;26.39;23.71
15998;BME280;8103;51.340;12.326;2023-02-16T13:52:25;100952.88;;;26.17;24.17
15998;BME280;8103;51.340;12.326;2023-02-16T13:54:53;100956.25;;;25.23;25.04
15998;BME280;8103;51.340;12.326;2023-02-16T14:00:41;100957.00;;;20.75;31.24
15998;BME280;8103;51.340;12.326;2023-02-16T14:03:37;100968.00;;;19.22;34.37
15998;BME280;8103;51.340;12.326;2023-02-16T14:19:55;100976.38;;;16.28;40.94
15998;BME280;8103;51.340;12.326;2023-02-16T14:27:55;100959.81;;;15.75;42.58
15998;BME280;8103;51.340;12.326;2023-02-16T14:30:45;100961.34;;;17.16;40.13
15998;BME280;8103;51.340;12.326;2023-02-16T14:35:45;100952.34;;;17.31;38.61
15998;BME280;8103;51.340;12.326;2023-02-16T14:38:27;100968.59;;;18.66;36.50
15998;BME280;8103;51.340;12.326;2023-02-16T14:41:03;100954.75;;;20.50;33.33
15998;BME280;8103;51.340;12.326;2023-02-16T14:43:39;100959.94;;;21.24;31.01
15998;BME280;8103;51.340;12.326;2023-02-16T14:46:27;100959.69;;;20.48;31.96
15998;BME280;8103;51.340;12.326;2023-02-16T14:49:52;100971.34;;;18.61;34.75
15998;BME280;8103;51.340;12.326;2023-02-16T15:03:14;100961.72;;;15.23;42.38
15998;BME280;8103;51.340;12.326;2023-02-16T15:05:42;100975.66;;;15.00;43.25
15998;BME280;8103;51.340;12.326;2023-02-16T15:08:26;100979.88;;;14.80;43.41
15998;BME280;8103;51.340;12.326;2023-02-16T15:11:24;100975.13;;;14.56;44.11
15998;BME280;8103;51.340;12.326;2023-02-16T15:13:54;100962.59;;;14.40;44.63
15998;BME280;8103;51.340;12.326;2023-02-16T15:16:22;100966.44;;;14.22;45.10
15998;BME280;8103;51.340;12.326;2023-02-16T15:18:52;100962.03;;;14.11;45.52
15998;BME280;8103;51.340;12.326;2023-02-16T15:21:24;100960.00;;;13.97;46.25
15998;BME280;8103;51.340;12.326;2023-02-16T15:23:57;100954.72;;;13.80;46.89
15998;BME280;8103;51.340;12.326;2023-02-16T15:26:32;100947.09;;;13.72;46.75
15998;BME280;8103;51.340;12.326;2023-02-16T15:29:22;100947.53;;;13.64;47.64
15998;BME280;8103;51.340;12.326;2023-02-16T15:31:53;100945.09;;;13.63;47.29
15998;BME280;8103;51.340;12.326;2023-02-16T15:34:32;100945.84;;;13.58;48.24
15998;BME280;8103;51.340;12.326;2023-02-16T15:37:20;100929.84;;;13.47;48.46
15998;BME280;8103;51.340;12.326;2023-02-16T15:39:48;100940.19;;;13.33;48.87
15998;BME280;8103;51.340;12.326;2023-02-16T15:42:37;100931.38;;;13.16;49.55
15998;BME280;8103;51.340;12.326;2023-02-16T15:45:28;100939.41;;;12.95;50.26
15998;BME280;8103;51.340;12.326;2023-02-16T15:48:29;100931.28;;;12.73;51.04
15998;BME280;8103;51.340;12.326;2023-02-16T15:51:13;100936.59;;;12.68;50.99
15998;BME280;8103;51.340;12.326;2023-02-16T15:53:48;100927.81;;;12.56;51.42
15998;BME280;8103;51.340;12.326;2023-02-16T15:56:36;100925.47;;;12.43;52.39
15998;BME280;8103;51.340;12.326;2023-02-16T15:59:36;100923.38;;;12.28;53.23
15998;BME280;8103;51.340;12.326;2023-02-16T16:02:30;100925.72;;;12.25;53.69